TRA41W EHAM-EGPF
Flight info
| Callsign | TRA41W |
|---|---|
| Flight time | 1h 5m |
| Altitude | 28000 |
| Route | BERGI L602 SUPUR P1 GODOS DCT ROXAT DCT BAZNA DCT ANMAZ DCT EWOKE DCT AGPED |
| Aircraft | A321/M-SDE3FGHIRWY/LB1 |
Departure
| Time | 2026-05-07 10:09 |
|---|---|
| Airport | Amsterdam Airport Schiphol (EHAM) |
Arrival
| Time | 2026-05-07 11:15 |
|---|---|
| Airport | Glasgow Airport (EGPF) |
| Time | Latitude | Longitude | Altitude | Speed | Heading |
|---|---|---|---|---|---|
| 2026-05-07 09:10 | 52.30676 | 4.76608 | -1 ft | 0 kts | 253° |
| 2026-05-07 09:53 | 52.30678 | 4.76618 | -1 ft | 3 kts | 253° |
| 2026-05-07 09:53 | 52.30683 | 4.76644 | -1 ft | 2 kts | 253° |
| 2026-05-07 09:53 | 52.30688 | 4.76670 | 0 ft | 3 kts | 253° |
| 2026-05-07 09:54 | 52.30697 | 4.76695 | -1 ft | 3 kts | 198° |
| 2026-05-07 09:54 | 52.30714 | 4.76696 | -1 ft | 2 kts | 149° |
| 2026-05-07 09:54 | 52.30720 | 4.76690 | -1 ft | 0 kts | 149° |
| 2026-05-07 09:55 | 52.30680 | 4.76730 | -1 ft | 18 kts | 148° |
| 2026-05-07 09:56 | 52.30652 | 4.76886 | 3 ft | 17 kts | 75° |
| 2026-05-07 09:56 | 52.30568 | 4.77067 | 7 ft | 26 kts | 149° |
| 2026-05-07 09:56 | 52.30446 | 4.77133 | 11 ft | 14 kts | 221° |
| 2026-05-07 09:56 | 52.30461 | 4.76970 | 7 ft | 16 kts | 265° |
| 2026-05-07 09:57 | 52.30407 | 4.76802 | 9 ft | 18 kts | 237° |
| 2026-05-07 09:57 | 52.30294 | 4.76520 | 13 ft | 41 kts | 238° |
| 2026-05-07 09:57 | 52.30140 | 4.76107 | 11 ft | 43 kts | 238° |
| 2026-05-07 09:57 | 52.29980 | 4.75692 | 10 ft | 43 kts | 238° |
| 2026-05-07 09:58 | 52.29837 | 4.75315 | 15 ft | 28 kts | 246° |
| 2026-05-07 09:58 | 52.29914 | 4.75054 | 8 ft | 29 kts | 310° |
| 2026-05-07 09:58 | 52.30075 | 4.74762 | 7 ft | 38 kts | 311° |
| 2026-05-07 09:58 | 52.30238 | 4.74462 | 11 ft | 33 kts | 311° |
| 2026-05-07 09:59 | 52.30369 | 4.74218 | 14 ft | 24 kts | 311° |
| 2026-05-07 09:59 | 52.30413 | 4.74079 | 15 ft | 13 kts | 244° |
| 2026-05-07 09:59 | 52.30379 | 4.74045 | 16 ft | 0 kts | 195° |
| 2026-05-07 09:59 | 52.30378 | 4.74045 | 16 ft | 0 kts | 195° |
| 2026-05-07 10:00 | 52.30377 | 4.74045 | 16 ft | 1 kts | 195° |
| 2026-05-07 10:01 | 52.30368 | 4.74041 | 16 ft | 1 kts | 194° |
| 2026-05-07 10:01 | 52.30357 | 4.74037 | 16 ft | 2 kts | 192° |
| 2026-05-07 10:01 | 52.30342 | 4.74032 | 16 ft | 3 kts | 192° |
| 2026-05-07 10:01 | 52.30320 | 4.74024 | 17 ft | 4 kts | 194° |
| 2026-05-07 10:02 | 52.30290 | 4.74000 | 16 ft | 6 kts | 211° |
| 2026-05-07 10:02 | 52.30265 | 4.73970 | 16 ft | 4 kts | 217° |
| 2026-05-07 10:02 | 52.30230 | 4.73927 | 15 ft | 8 kts | 217° |
| 2026-05-07 10:02 | 52.30220 | 4.73913 | 15 ft | 0 kts | 220° |
| 2026-05-07 10:04 | 52.30219 | 4.73913 | 15 ft | 0 kts | 220° |
| 2026-05-07 10:04 | 52.30200 | 4.73880 | 15 ft | 9 kts | 231° |
| 2026-05-07 10:05 | 52.30189 | 4.73791 | 16 ft | 2 kts | 270° |
| 2026-05-07 10:05 | 52.30189 | 4.73761 | 16 ft | 3 kts | 270° |
| 2026-05-07 10:05 | 52.30202 | 4.73736 | 17 ft | 4 kts | 339° |
| 2026-05-07 10:05 | 52.30216 | 4.73736 | 15 ft | 2 kts | 6° |
| 2026-05-07 10:06 | 52.30221 | 4.73736 | 15 ft | 0 kts | 4° |
| 2026-05-07 10:08 | 52.30223 | 4.73737 | 15 ft | 2 kts | 4° |
| 2026-05-07 10:08 | 52.30375 | 4.73752 | 13 ft | 58 kts | 3° |
| 2026-05-07 10:09 | 52.31032 | 4.73810 | 20 ft | 128 kts | 3° |
| 2026-05-07 10:09 | 52.32091 | 4.73915 | 213 ft | 166 kts | 4° |
| 2026-05-07 10:09 | 52.33265 | 4.73830 | 855 ft | 168 kts | 349° |
| 2026-05-07 10:09 | 52.34437 | 4.73343 | 1381 ft | 184 kts | 345° |
| 2026-05-07 10:10 | 52.35746 | 4.72704 | 1741 ft | 209 kts | 345° |
| 2026-05-07 10:10 | 52.37217 | 4.71964 | 2206 ft | 233 kts | 344° |
| 2026-05-07 10:10 | 52.38835 | 4.71125 | 2810 ft | 250 kts | 343° |
| 2026-05-07 10:10 | 52.40522 | 4.70251 | 3638 ft | 255 kts | 343° |
| 2026-05-07 10:11 | 52.42229 | 4.69370 | 4502 ft | 259 kts | 341° |
| 2026-05-07 10:11 | 52.43811 | 4.68000 | 5349 ft | 262 kts | 328° |
| 2026-05-07 10:11 | 52.45372 | 4.66408 | 6189 ft | 266 kts | 327° |
| 2026-05-07 10:11 | 52.46960 | 4.64777 | 6978 ft | 270 kts | 327° |
| 2026-05-07 10:12 | 52.48545 | 4.63149 | 7739 ft | 274 kts | 327° |
| 2026-05-07 10:12 | 52.50175 | 4.61473 | 8539 ft | 278 kts | 327° |
| 2026-05-07 10:12 | 52.51827 | 4.59769 | 9327 ft | 282 kts | 327° |
| 2026-05-07 10:12 | 52.53504 | 4.58036 | 10091 ft | 286 kts | 327° |
| 2026-05-07 10:13 | 52.55246 | 4.56235 | 10426 ft | 306 kts | 327° |
| 2026-05-07 10:13 | 52.57092 | 4.54327 | 10630 ft | 325 kts | 327° |
| 2026-05-07 10:13 | 52.59042 | 4.52313 | 11184 ft | 332 kts | 327° |
| 2026-05-07 10:13 | 52.61014 | 4.50277 | 11858 ft | 335 kts | 327° |
| 2026-05-07 10:14 | 52.62983 | 4.48242 | 12545 ft | 339 kts | 327° |
| 2026-05-07 10:14 | 52.64993 | 4.46168 | 13239 ft | 341 kts | 327° |
| 2026-05-07 10:14 | 52.67018 | 4.44074 | 13887 ft | 345 kts | 327° |
| 2026-05-07 10:14 | 52.69001 | 4.41795 | 14482 ft | 347 kts | 317° |
| 2026-05-07 10:15 | 52.70518 | 4.38681 | 15087 ft | 349 kts | 302° |
| 2026-05-07 10:15 | 52.71788 | 4.35312 | 15714 ft | 351 kts | 301° |
| 2026-05-07 10:15 | 52.73081 | 4.31856 | 16316 ft | 354 kts | 301° |
| 2026-05-07 10:15 | 52.74379 | 4.28362 | 16920 ft | 358 kts | 301° |
| 2026-05-07 10:16 | 52.75672 | 4.24871 | 17454 ft | 362 kts | 301° |
| 2026-05-07 10:16 | 52.76996 | 4.21296 | 18023 ft | 366 kts | 301° |
| 2026-05-07 10:16 | 52.78353 | 4.17630 | 18190 ft | 381 kts | 301° |
| 2026-05-07 10:16 | 52.79760 | 4.13819 | 18349 ft | 394 kts | 301° |
| 2026-05-07 10:17 | 52.81209 | 4.09893 | 18462 ft | 406 kts | 301° |
| 2026-05-07 10:17 | 52.82701 | 4.05844 | 18589 ft | 417 kts | 301° |
| 2026-05-07 10:17 | 52.84231 | 4.01688 | 18714 ft | 428 kts | 301° |
| 2026-05-07 10:17 | 52.85780 | 3.97479 | 18878 ft | 437 kts | 301° |
| 2026-05-07 10:18 | 52.87365 | 3.93164 | 19287 ft | 438 kts | 301° |
| 2026-05-07 10:18 | 52.88956 | 3.88826 | 19805 ft | 438 kts | 301° |
| 2026-05-07 10:18 | 52.90535 | 3.84511 | 20349 ft | 437 kts | 301° |
| 2026-05-07 10:18 | 52.92095 | 3.80242 | 20884 ft | 436 kts | 301° |
| 2026-05-07 10:19 | 52.93661 | 3.75941 | 21452 ft | 435 kts | 301° |
| 2026-05-07 10:19 | 52.95223 | 3.71635 | 22012 ft | 434 kts | 301° |
| 2026-05-07 10:19 | 52.96774 | 3.67348 | 22566 ft | 433 kts | 301° |
| 2026-05-07 10:19 | 52.98325 | 3.63056 | 23133 ft | 433 kts | 301° |
| 2026-05-07 10:20 | 52.99856 | 3.58812 | 23675 ft | 432 kts | 301° |
| 2026-05-07 10:20 | 53.01404 | 3.54522 | 24133 ft | 432 kts | 301° |
| 2026-05-07 10:20 | 53.02954 | 3.50228 | 24585 ft | 432 kts | 301° |
| 2026-05-07 10:20 | 53.04497 | 3.45952 | 25055 ft | 431 kts | 301° |
| 2026-05-07 10:21 | 53.06041 | 3.41663 | 25537 ft | 430 kts | 301° |
| 2026-05-07 10:21 | 53.07556 | 3.37447 | 26013 ft | 429 kts | 302° |
| 2026-05-07 10:21 | 53.09069 | 3.33159 | 26510 ft | 429 kts | 298° |
| 2026-05-07 10:21 | 53.10244 | 3.28593 | 26985 ft | 429 kts | 289° |
| 2026-05-07 10:22 | 53.10980 | 3.23785 | 27466 ft | 429 kts | 283° |
| 2026-05-07 10:22 | 53.11620 | 3.18925 | 27939 ft | 429 kts | 283° |
| 2026-05-07 10:22 | 53.12263 | 3.14070 | 28093 ft | 429 kts | 283° |
| 2026-05-07 10:23 | 53.13544 | 3.04408 | 28111 ft | 428 kts | 283° |
| 2026-05-07 10:23 | 53.14824 | 2.94664 | 28111 ft | 428 kts | 283° |
| 2026-05-07 10:24 | 53.16081 | 2.85034 | 28114 ft | 428 kts | 283° |
| 2026-05-07 10:24 | 53.17343 | 2.75302 | 28114 ft | 428 kts | 283° |
| 2026-05-07 10:25 | 53.18579 | 2.65622 | 28120 ft | 428 kts | 283° |
| 2026-05-07 10:25 | 53.19822 | 2.55855 | 28115 ft | 428 kts | 283° |
| 2026-05-07 10:26 | 53.21858 | 2.46650 | 28116 ft | 425 kts | 302° |
| 2026-05-07 10:26 | 53.24491 | 2.39715 | 28118 ft | 425 kts | 303° |
| 2026-05-07 10:27 | 53.27663 | 2.31386 | 28140 ft | 425 kts | 303° |
| 2026-05-07 10:27 | 53.30839 | 2.23002 | 28142 ft | 425 kts | 303° |
| 2026-05-07 10:28 | 53.33977 | 2.14670 | 28131 ft | 425 kts | 303° |
| 2026-05-07 10:28 | 53.35570 | 2.10417 | 28121 ft | 436 kts | 303° |
| 2026-05-07 10:28 | 53.37187 | 2.06099 | 28121 ft | 447 kts | 303° |
| 2026-05-07 10:29 | 53.40569 | 1.97106 | 28126 ft | 464 kts | 303° |
| 2026-05-07 10:29 | 53.44063 | 1.87783 | 28125 ft | 475 kts | 303° |
| 2026-05-07 10:30 | 53.49316 | 1.73640 | 28125 ft | 476 kts | 303° |
| 2026-05-07 10:30 | 53.52802 | 1.64218 | 28123 ft | 476 kts | 302° |
| 2026-05-07 10:31 | 53.56298 | 1.54724 | 28123 ft | 476 kts | 302° |
| 2026-05-07 10:31 | 53.59786 | 1.45222 | 28124 ft | 477 kts | 302° |
| 2026-05-07 10:32 | 53.63258 | 1.35727 | 28122 ft | 477 kts | 302° |
| 2026-05-07 10:32 | 53.66722 | 1.26230 | 28124 ft | 477 kts | 302° |
| 2026-05-07 10:33 | 53.70201 | 1.16654 | 28121 ft | 477 kts | 302° |
| 2026-05-07 10:33 | 53.73661 | 1.07069 | 28124 ft | 477 kts | 302° |
| 2026-05-07 10:34 | 53.77093 | 0.97529 | 28131 ft | 476 kts | 301° |
| 2026-05-07 10:34 | 53.80538 | 0.87930 | 28124 ft | 475 kts | 301° |
| 2026-05-07 10:35 | 53.83943 | 0.78428 | 28114 ft | 474 kts | 301° |
| 2026-05-07 10:35 | 53.87360 | 0.68834 | 28106 ft | 474 kts | 301° |
| 2026-05-07 10:36 | 53.90737 | 0.59298 | 28099 ft | 473 kts | 301° |
| 2026-05-07 10:36 | 53.94134 | 0.49674 | 28089 ft | 474 kts | 301° |
| 2026-05-07 10:37 | 53.97502 | 0.40081 | 28087 ft | 474 kts | 301° |
| 2026-05-07 10:37 | 54.00882 | 0.30427 | 28099 ft | 473 kts | 300° |
| 2026-05-07 10:38 | 54.04610 | 0.21316 | 28116 ft | 472 kts | 311° |
| 2026-05-07 10:38 | 54.08965 | 0.12919 | 28103 ft | 472 kts | 311° |
| 2026-05-07 10:39 | 54.13325 | 0.04496 | 28095 ft | 472 kts | 311° |
| 2026-05-07 10:39 | 54.17652 | -0.03884 | 28084 ft | 473 kts | 310° |
| 2026-05-07 10:40 | 54.21987 | -0.12309 | 28076 ft | 474 kts | 310° |
| 2026-05-07 10:40 | 54.26341 | -0.20823 | 28091 ft | 475 kts | 310° |
| 2026-05-07 10:41 | 54.30640 | -0.29246 | 28098 ft | 463 kts | 309° |
| 2026-05-07 10:41 | 54.34830 | -0.37484 | 28095 ft | 458 kts | 309° |
| 2026-05-07 10:42 | 54.39003 | -0.45726 | 28089 ft | 457 kts | 310° |
| 2026-05-07 10:42 | 54.43188 | -0.53998 | 28092 ft | 458 kts | 309° |
| 2026-05-07 10:43 | 54.47358 | -0.62279 | 28086 ft | 457 kts | 310° |
| 2026-05-07 10:43 | 54.51485 | -0.70514 | 28085 ft | 457 kts | 309° |
| 2026-05-07 10:44 | 54.55634 | -0.78828 | 28080 ft | 457 kts | 309° |
| 2026-05-07 10:44 | 54.59786 | -0.87160 | 28073 ft | 450 kts | 309° |
| 2026-05-07 10:45 | 54.63798 | -0.95235 | 28075 ft | 443 kts | 309° |
| 2026-05-07 10:45 | 54.67810 | -1.03338 | 28076 ft | 443 kts | 309° |
| 2026-05-07 10:46 | 54.71788 | -1.11411 | 28069 ft | 441 kts | 308° |
| 2026-05-07 10:46 | 54.75754 | -1.19499 | 28073 ft | 442 kts | 309° |
| 2026-05-07 10:47 | 54.79737 | -1.27625 | 28067 ft | 442 kts | 309° |
| 2026-05-07 10:47 | 54.83714 | -1.35780 | 28057 ft | 442 kts | 308° |
| 2026-05-07 10:48 | 54.87688 | -1.43948 | 28042 ft | 442 kts | 308° |
| 2026-05-07 10:48 | 54.91631 | -1.52074 | 28035 ft | 442 kts | 308° |
| 2026-05-07 10:49 | 54.95604 | -1.60277 | 28030 ft | 442 kts | 308° |
| 2026-05-07 10:49 | 54.99541 | -1.68454 | 28030 ft | 442 kts | 308° |
| 2026-05-07 10:50 | 55.03499 | -1.76694 | 28030 ft | 442 kts | 308° |
| 2026-05-07 10:50 | 55.07456 | -1.84943 | 28029 ft | 442 kts | 308° |
| 2026-05-07 10:51 | 55.11374 | -1.93179 | 28031 ft | 441 kts | 307° |
| 2026-05-07 10:51 | 55.13064 | -1.97522 | 28018 ft | 420 kts | 298° |
| 2026-05-07 10:51 | 55.14480 | -2.01826 | 28020 ft | 402 kts | 298° |
| 2026-05-07 10:52 | 55.15848 | -2.05973 | 28019 ft | 389 kts | 298° |
| 2026-05-07 10:52 | 55.17194 | -2.10057 | 28018 ft | 386 kts | 298° |
| 2026-05-07 10:52 | 55.19873 | -2.18210 | 28015 ft | 385 kts | 298° |
| 2026-05-07 10:53 | 55.22515 | -2.26284 | 27633 ft | 381 kts | 297° |
| 2026-05-07 10:53 | 55.23843 | -2.30356 | 27104 ft | 378 kts | 297° |
| 2026-05-07 10:53 | 55.25129 | -2.34301 | 26634 ft | 376 kts | 297° |
| 2026-05-07 10:54 | 55.26421 | -2.38274 | 26182 ft | 372 kts | 297° |
| 2026-05-07 10:54 | 55.27686 | -2.42167 | 25978 ft | 362 kts | 297° |
| 2026-05-07 10:54 | 55.28926 | -2.45978 | 26007 ft | 359 kts | 297° |
| 2026-05-07 10:54 | 55.30161 | -2.49780 | 25791 ft | 356 kts | 297° |
| 2026-05-07 10:55 | 55.31384 | -2.53556 | 25304 ft | 354 kts | 296° |
| 2026-05-07 10:55 | 55.32608 | -2.57350 | 24321 ft | 368 kts | 297° |
| 2026-05-07 10:55 | 55.33891 | -2.61339 | 23398 ft | 379 kts | 297° |
| 2026-05-07 10:55 | 55.35193 | -2.65396 | 22671 ft | 379 kts | 297° |
| 2026-05-07 10:56 | 55.36486 | -2.69428 | 22125 ft | 376 kts | 297° |
| 2026-05-07 10:56 | 55.37752 | -2.73375 | 21967 ft | 362 kts | 296° |
| 2026-05-07 10:56 | 55.38963 | -2.77138 | 21999 ft | 344 kts | 296° |
| 2026-05-07 10:56 | 55.40117 | -2.80753 | 21994 ft | 340 kts | 296° |
| 2026-05-07 10:57 | 55.41274 | -2.84381 | 21996 ft | 339 kts | 296° |
| 2026-05-07 10:57 | 55.42432 | -2.88020 | 22006 ft | 339 kts | 296° |
| 2026-05-07 10:57 | 55.43583 | -2.91645 | 21995 ft | 339 kts | 296° |
| 2026-05-07 10:57 | 55.44736 | -2.95277 | 21876 ft | 337 kts | 296° |
| 2026-05-07 10:58 | 55.45810 | -2.98868 | 21406 ft | 332 kts | 289° |
| 2026-05-07 10:58 | 55.46452 | -3.02725 | 20980 ft | 324 kts | 278° |
| 2026-05-07 10:58 | 55.46862 | -3.06636 | 20504 ft | 323 kts | 278° |
| 2026-05-07 10:58 | 55.47277 | -3.10520 | 20042 ft | 321 kts | 278° |
| 2026-05-07 10:59 | 55.47688 | -3.14329 | 19631 ft | 318 kts | 278° |
| 2026-05-07 10:59 | 55.48100 | -3.18139 | 19206 ft | 315 kts | 279° |
| 2026-05-07 10:59 | 55.48507 | -3.21918 | 18815 ft | 311 kts | 278° |
| 2026-05-07 10:59 | 55.48905 | -3.25661 | 18400 ft | 309 kts | 278° |
| 2026-05-07 11:00 | 55.49299 | -3.29374 | 17941 ft | 306 kts | 278° |
| 2026-05-07 11:00 | 55.49694 | -3.33053 | 17461 ft | 304 kts | 280° |
| 2026-05-07 11:00 | 55.50396 | -3.36569 | 17034 ft | 306 kts | 293° |
| 2026-05-07 11:00 | 55.51484 | -3.39801 | 16581 ft | 306 kts | 297° |
| 2026-05-07 11:01 | 55.52596 | -3.42990 | 16099 ft | 304 kts | 297° |
| 2026-05-07 11:01 | 55.53702 | -3.46174 | 15628 ft | 304 kts | 296° |
| 2026-05-07 11:01 | 55.54804 | -3.49355 | 15176 ft | 303 kts | 296° |
| 2026-05-07 11:01 | 55.55889 | -3.52495 | 14732 ft | 302 kts | 296° |
| 2026-05-07 11:02 | 55.56983 | -3.55668 | 14291 ft | 301 kts | 296° |
| 2026-05-07 11:02 | 55.58075 | -3.58839 | 13842 ft | 301 kts | 296° |
| 2026-05-07 11:02 | 55.59149 | -3.61965 | 13386 ft | 299 kts | 296° |
| 2026-05-07 11:02 | 55.60229 | -3.65108 | 12947 ft | 297 kts | 296° |
| 2026-05-07 11:03 | 55.61299 | -3.68225 | 12533 ft | 294 kts | 296° |
| 2026-05-07 11:03 | 55.62363 | -3.71323 | 12126 ft | 292 kts | 297° |
| 2026-05-07 11:03 | 55.63411 | -3.74381 | 11707 ft | 289 kts | 296° |
| 2026-05-07 11:03 | 55.64447 | -3.77406 | 11328 ft | 286 kts | 296° |
| 2026-05-07 11:04 | 55.65460 | -3.80372 | 10947 ft | 283 kts | 296° |
| 2026-05-07 11:04 | 55.66475 | -3.83359 | 10545 ft | 281 kts | 297° |
| 2026-05-07 11:04 | 55.67702 | -3.86075 | 10128 ft | 284 kts | 311° |
| 2026-05-07 11:04 | 55.69360 | -3.87952 | 9751 ft | 291 kts | 337° |
| 2026-05-07 11:05 | 55.71329 | -3.88861 | 9302 ft | 292 kts | 343° |
| 2026-05-07 11:05 | 55.73314 | -3.89619 | 8854 ft | 290 kts | 340° |
| 2026-05-07 11:05 | 55.75221 | -3.90765 | 8428 ft | 287 kts | 335° |
| 2026-05-07 11:05 | 55.77014 | -3.91961 | 8223 ft | 263 kts | 334° |
| 2026-05-07 11:06 | 55.78706 | -3.93088 | 7952 ft | 254 kts | 334° |
| 2026-05-07 11:06 | 55.80353 | -3.94189 | 7550 ft | 250 kts | 334° |
| 2026-05-07 11:06 | 55.81942 | -3.95240 | 7051 ft | 243 kts | 334° |
| 2026-05-07 11:06 | 55.83521 | -3.96278 | 6467 ft | 241 kts | 334° |
| 2026-05-07 11:07 | 55.85084 | -3.97305 | 5861 ft | 238 kts | 334° |
| 2026-05-07 11:07 | 55.86112 | -3.97982 | 5461 ft | 236 kts | 334° |
| 2026-05-07 11:07 | 55.88144 | -3.99309 | 4759 ft | 229 kts | 334° |
| 2026-05-07 11:07 | 55.89567 | -4.00210 | 4592 ft | 206 kts | 334° |
| 2026-05-07 11:08 | 55.90904 | -4.01032 | 4132 ft | 201 kts | 334° |
| 2026-05-07 11:08 | 55.92218 | -4.01839 | 3634 ft | 199 kts | 334° |
| 2026-05-07 11:08 | 55.93083 | -4.02377 | 3504 ft | 200 kts | 334° |
| 2026-05-07 11:08 | 55.94790 | -4.03663 | 3499 ft | 195 kts | 314° |
| 2026-05-07 11:09 | 55.95501 | -4.05560 | 3500 ft | 180 kts | 281° |
| 2026-05-07 11:09 | 55.95722 | -4.06974 | 3500 ft | 178 kts | 276° |
| 2026-05-07 11:09 | 55.95985 | -4.09073 | 3179 ft | 172 kts | 275° |
| 2026-05-07 11:09 | 55.96230 | -4.11170 | 2644 ft | 173 kts | 274° |
| 2026-05-07 11:10 | 55.96476 | -4.13280 | 2499 ft | 179 kts | 274° |
| 2026-05-07 11:10 | 55.96672 | -4.15458 | 2939 ft | 177 kts | 266° |
| 2026-05-07 11:10 | 55.96633 | -4.17613 | 2996 ft | 172 kts | 260° |
| 2026-05-07 11:10 | 55.96540 | -4.19706 | 2893 ft | 165 kts | 259° |
| 2026-05-07 11:11 | 55.96452 | -4.21744 | 2338 ft | 167 kts | 259° |
| 2026-05-07 11:11 | 55.96362 | -4.23820 | 2023 ft | 168 kts | 259° |
| 2026-05-07 11:11 | 55.96192 | -4.25874 | 1999 ft | 165 kts | 245° |
| 2026-05-07 11:11 | 55.95596 | -4.27563 | 2009 ft | 161 kts | 224° |
| 2026-05-07 11:12 | 55.94828 | -4.29002 | 1959 ft | 155 kts | 223° |
| 2026-05-07 11:12 | 55.94114 | -4.30347 | 1846 ft | 145 kts | 223° |
| 2026-05-07 11:12 | 55.93421 | -4.31648 | 1673 ft | 144 kts | 223° |
| 2026-05-07 11:12 | 55.92739 | -4.32929 | 1484 ft | 141 kts | 224° |
| 2026-05-07 11:13 | 55.92071 | -4.34183 | 1298 ft | 138 kts | 223° |
| 2026-05-07 11:13 | 55.91412 | -4.35420 | 1106 ft | 139 kts | 221° |
| 2026-05-07 11:13 | 55.90752 | -4.36677 | 929 ft | 136 kts | 223° |
| 2026-05-07 11:13 | 55.90095 | -4.37953 | 709 ft | 136 kts | 221° |
| 2026-05-07 11:14 | 55.89430 | -4.39180 | 537 ft | 135 kts | 220° |
| 2026-05-07 11:14 | 55.88761 | -4.40398 | 331 ft | 136 kts | 223° |
| 2026-05-07 11:14 | 55.88103 | -4.41644 | 159 ft | 138 kts | 223° |
| 2026-05-07 11:14 | 55.87453 | -4.42848 | 34 ft | 127 kts | 222° |
| 2026-05-07 11:15 | 55.86945 | -4.43789 | 31 ft | 69 kts | 226° |
| 2026-05-07 11:15 | 55.86758 | -4.44137 | 32 ft | 29 kts | 226° |
| 2026-05-07 11:15 | 55.86644 | -4.44244 | 31 ft | 16 kts | 148° |
| 2026-05-07 11:15 | 55.86619 | -4.44086 | 29 ft | 3 kts | 95° |
| 2026-05-07 11:16 | 55.86619 | -4.44077 | 29 ft | 0 kts | 95° |
| 2026-05-07 11:16 | 55.86606 | -4.44059 | 29 ft | 7 kts | 150° |
| 2026-05-07 11:16 | 55.86550 | -4.44027 | 30 ft | 6 kts | 160° |
| 2026-05-07 11:17 | 55.86521 | -4.44002 | 31 ft | 3 kts | 149° |
| 2026-05-07 11:17 | 55.86509 | -4.43989 | 31 ft | 1 kts | 149° |
| 2026-05-07 11:17 | 55.86497 | -4.43959 | 31 ft | 15 kts | 110° |
| 2026-05-07 11:17 | 55.86503 | -4.43854 | 30 ft | 2 kts | 59° |
| 2026-05-07 11:18 | 55.86505 | -4.43847 | 30 ft | 0 kts | 59° |
| 2026-05-07 11:18 | 55.86509 | -4.43835 | 30 ft | 0 kts | 59° |
| 2026-05-07 11:18 | 55.86511 | -4.43830 | 30 ft | 1 kts | 59° |
| 2026-05-07 11:18 | 55.86511 | -4.43829 | 30 ft | 0 kts | 59° |